CCA8287 ZHHH-ZBAD
Flight info
| Callsign | CCA8287 |
|---|---|
| Flight time | 1h 26m |
| Altitude | 24600 |
| Route | BENBI W56 ORODO W62 TEKIL G212 BELAX |
| Aircraft | A20N/M-SDE2E3FGHIRWXY/LB1 |
Departure
| Time | 2026-05-05 05:08 |
|---|---|
| Airport | Wuhan Tianhe International Airport (ZHHH) |
Arrival
| Time | 2026-05-05 06:35 |
|---|---|
| Airport | Beijing Daxing International Airport (ZBAD) |
| Time | Latitude | Longitude | Altitude | Speed | Heading |
|---|---|---|---|---|---|
| 2026-05-05 04:51 | 30.77185 | 114.21829 | 124 ft | 0 kts | 39° |
| 2026-05-05 04:58 | 30.77177 | 114.21822 | 123 ft | 2 kts | 39° |
| 2026-05-05 04:59 | 30.77166 | 114.21809 | 123 ft | 2 kts | 62° |
| 2026-05-05 04:59 | 30.77162 | 114.21793 | 123 ft | 2 kts | 92° |
| 2026-05-05 04:59 | 30.77166 | 114.21776 | 123 ft | 1 kts | 123° |
| 2026-05-05 04:59 | 30.77170 | 114.21770 | 123 ft | 1 kts | 135° |
| 2026-05-05 05:00 | 30.77172 | 114.21767 | 123 ft | 0 kts | 131° |
| 2026-05-05 05:01 | 30.77172 | 114.21768 | 123 ft | 0 kts | 131° |
| 2026-05-05 05:02 | 30.77163 | 114.21780 | 123 ft | 2 kts | 132° |
| 2026-05-05 05:02 | 30.77144 | 114.21804 | 123 ft | 5 kts | 132° |
| 2026-05-05 05:02 | 30.77114 | 114.21841 | 123 ft | 7 kts | 133° |
| 2026-05-05 05:02 | 30.77075 | 114.21890 | 123 ft | 9 kts | 133° |
| 2026-05-05 05:03 | 30.77015 | 114.21932 | 123 ft | 11 kts | 175° |
| 2026-05-05 05:03 | 30.76937 | 114.21877 | 123 ft | 15 kts | 221° |
| 2026-05-05 05:03 | 30.76838 | 114.21777 | 123 ft | 22 kts | 219° |
| 2026-05-05 05:03 | 30.76706 | 114.21639 | 123 ft | 28 kts | 221° |
| 2026-05-05 05:04 | 30.76550 | 114.21478 | 123 ft | 30 kts | 223° |
| 2026-05-05 05:04 | 30.76401 | 114.21326 | 123 ft | 27 kts | 221° |
| 2026-05-05 05:04 | 30.76254 | 114.21175 | 123 ft | 28 kts | 221° |
| 2026-05-05 05:04 | 30.76124 | 114.21034 | 123 ft | 17 kts | 233° |
| 2026-05-05 05:05 | 30.76173 | 114.20918 | 123 ft | 18 kts | 312° |
| 2026-05-05 05:05 | 30.76264 | 114.20796 | 123 ft | 21 kts | 309° |
| 2026-05-05 05:05 | 30.76373 | 114.20655 | 123 ft | 25 kts | 312° |
| 2026-05-05 05:05 | 30.76497 | 114.20493 | 123 ft | 28 kts | 310° |
| 2026-05-05 05:06 | 30.76633 | 114.20315 | 123 ft | 30 kts | 312° |
| 2026-05-05 05:06 | 30.76780 | 114.20121 | 123 ft | 32 kts | 311° |
| 2026-05-05 05:06 | 30.76931 | 114.19924 | 123 ft | 30 kts | 313° |
| 2026-05-05 05:06 | 30.77101 | 114.19837 | 123 ft | 24 kts | 318° |
| 2026-05-05 05:07 | 30.77212 | 114.19683 | 123 ft | 22 kts | 321° |
| 2026-05-05 05:07 | 30.77265 | 114.19690 | 123 ft | 3 kts | 42° |
| 2026-05-05 05:07 | 30.77424 | 114.19855 | 123 ft | 67 kts | 42° |
| 2026-05-05 05:07 | 30.77954 | 114.20396 | 123 ft | 132 kts | 41° |
| 2026-05-05 05:08 | 30.78763 | 114.21250 | 262 ft | 170 kts | 44° |
| 2026-05-05 05:08 | 30.79619 | 114.22212 | 793 ft | 178 kts | 45° |
| 2026-05-05 05:08 | 30.80520 | 114.23234 | 1434 ft | 183 kts | 47° |
| 2026-05-05 05:08 | 30.81380 | 114.24315 | 2080 ft | 187 kts | 48° |
| 2026-05-05 05:09 | 30.82292 | 114.25451 | 2509 ft | 202 kts | 47° |
| 2026-05-05 05:09 | 30.83303 | 114.26700 | 2931 ft | 219 kts | 46° |
| 2026-05-05 05:09 | 30.84403 | 114.28053 | 3271 ft | 243 kts | 46° |
| 2026-05-05 05:09 | 30.85581 | 114.29505 | 3947 ft | 250 kts | 46° |
| 2026-05-05 05:10 | 30.86782 | 114.30986 | 4446 ft | 249 kts | 46° |
| 2026-05-05 05:10 | 30.87958 | 114.32438 | 4934 ft | 247 kts | 46° |
| 2026-05-05 05:10 | 30.89123 | 114.33877 | 5424 ft | 247 kts | 46° |
| 2026-05-05 05:10 | 30.90302 | 114.35336 | 5925 ft | 246 kts | 46° |
| 2026-05-05 05:11 | 30.91568 | 114.36672 | 6403 ft | 246 kts | 28° |
| 2026-05-05 05:11 | 30.93200 | 114.37193 | 6889 ft | 247 kts | 0° |
| 2026-05-05 05:11 | 30.94876 | 114.36728 | 7379 ft | 252 kts | 332° |
| 2026-05-05 05:11 | 30.96239 | 114.35445 | 7875 ft | 263 kts | 318° |
| 2026-05-05 05:12 | 30.97750 | 114.34143 | 8379 ft | 274 kts | 339° |
| 2026-05-05 05:12 | 30.99634 | 114.33721 | 8884 ft | 284 kts | 5° |
| 2026-05-05 05:12 | 31.01607 | 114.34109 | 9387 ft | 296 kts | 12° |
| 2026-05-05 05:12 | 31.03691 | 114.34518 | 9886 ft | 310 kts | 8° |
| 2026-05-05 05:13 | 31.05884 | 114.34742 | 10383 ft | 323 kts | 3° |
| 2026-05-05 05:13 | 31.08174 | 114.34807 | 10880 ft | 335 kts | 0° |
| 2026-05-05 05:13 | 31.10544 | 114.34764 | 11374 ft | 345 kts | 358° |
| 2026-05-05 05:13 | 31.12963 | 114.34660 | 11864 ft | 355 kts | 357° |
| 2026-05-05 05:14 | 31.15462 | 114.34519 | 12356 ft | 365 kts | 356° |
| 2026-05-05 05:14 | 31.18030 | 114.34357 | 12849 ft | 373 kts | 355° |
| 2026-05-05 05:14 | 31.20641 | 114.34181 | 13340 ft | 379 kts | 355° |
| 2026-05-05 05:14 | 31.23290 | 114.34000 | 13834 ft | 382 kts | 355° |
| 2026-05-05 05:15 | 31.25942 | 114.33817 | 14329 ft | 384 kts | 355° |
| 2026-05-05 05:15 | 31.28617 | 114.33629 | 14823 ft | 387 kts | 355° |
| 2026-05-05 05:15 | 31.31315 | 114.33440 | 15317 ft | 390 kts | 354° |
| 2026-05-05 05:15 | 31.34032 | 114.33253 | 15816 ft | 392 kts | 355° |
| 2026-05-05 05:16 | 31.36759 | 114.33174 | 16309 ft | 398 kts | 358° |
| 2026-05-05 05:16 | 31.39580 | 114.33237 | 16803 ft | 403 kts | 359° |
| 2026-05-05 05:16 | 31.42399 | 114.33327 | 17297 ft | 407 kts | 359° |
| 2026-05-05 05:16 | 31.45222 | 114.33419 | 17786 ft | 411 kts | 359° |
| 2026-05-05 05:17 | 31.48091 | 114.33510 | 18282 ft | 415 kts | 359° |
| 2026-05-05 05:17 | 31.50976 | 114.33601 | 18778 ft | 418 kts | 359° |
| 2026-05-05 05:17 | 31.53926 | 114.33693 | 19286 ft | 420 kts | 358° |
| 2026-05-05 05:17 | 31.56851 | 114.33780 | 19790 ft | 422 kts | 358° |
| 2026-05-05 05:18 | 31.59760 | 114.33865 | 20290 ft | 424 kts | 358° |
| 2026-05-05 05:18 | 31.62748 | 114.33953 | 20801 ft | 426 kts | 358° |
| 2026-05-05 05:18 | 31.65705 | 114.34042 | 21303 ft | 428 kts | 358° |
| 2026-05-05 05:18 | 31.68678 | 114.34129 | 21807 ft | 429 kts | 357° |
| 2026-05-05 05:19 | 31.71653 | 114.34217 | 22323 ft | 430 kts | 357° |
| 2026-05-05 05:19 | 31.74679 | 114.34303 | 22849 ft | 431 kts | 357° |
| 2026-05-05 05:19 | 31.77674 | 114.34390 | 23379 ft | 432 kts | 358° |
| 2026-05-05 05:19 | 31.80695 | 114.34482 | 23882 ft | 433 kts | 357° |
| 2026-05-05 05:20 | 31.83711 | 114.34578 | 24368 ft | 433 kts | 356° |
| 2026-05-05 05:20 | 31.86707 | 114.34670 | 24637 ft | 440 kts | 356° |
| 2026-05-05 05:20 | 31.89804 | 114.34759 | 24669 ft | 452 kts | 356° |
| 2026-05-05 05:20 | 31.93005 | 114.34849 | 24653 ft | 463 kts | 357° |
| 2026-05-05 05:21 | 31.96247 | 114.34946 | 24655 ft | 471 kts | 357° |
| 2026-05-05 05:21 | 31.99547 | 114.35046 | 24664 ft | 474 kts | 357° |
| 2026-05-05 05:21 | 32.02850 | 114.35146 | 24677 ft | 475 kts | 357° |
| 2026-05-05 05:21 | 32.06170 | 114.35248 | 24666 ft | 474 kts | 357° |
| 2026-05-05 05:22 | 32.09459 | 114.35349 | 24662 ft | 474 kts | 357° |
| 2026-05-05 05:22 | 32.12738 | 114.35449 | 24660 ft | 474 kts | 357° |
| 2026-05-05 05:22 | 32.16028 | 114.35550 | 24657 ft | 474 kts | 357° |
| 2026-05-05 05:22 | 32.19348 | 114.35651 | 24656 ft | 473 kts | 357° |
| 2026-05-05 05:23 | 32.22611 | 114.35750 | 24655 ft | 473 kts | 357° |
| 2026-05-05 05:23 | 32.25945 | 114.35885 | 24650 ft | 478 kts | 359° |
| 2026-05-05 05:23 | 32.29245 | 114.36150 | 24650 ft | 479 kts | 0° |
| 2026-05-05 05:23 | 32.32582 | 114.36452 | 24652 ft | 480 kts | 1° |
| 2026-05-05 05:24 | 32.35907 | 114.36762 | 24651 ft | 479 kts | 1° |
| 2026-05-05 05:24 | 32.39238 | 114.37073 | 24652 ft | 479 kts | 1° |
| 2026-05-05 05:24 | 32.42555 | 114.37380 | 24655 ft | 478 kts | 1° |
| 2026-05-05 05:24 | 32.45904 | 114.37688 | 24652 ft | 478 kts | 1° |
| 2026-05-05 05:25 | 32.49187 | 114.37988 | 24650 ft | 478 kts | 1° |
| 2026-05-05 05:25 | 32.52512 | 114.38292 | 24648 ft | 478 kts | 1° |
| 2026-05-05 05:25 | 32.55851 | 114.38598 | 24648 ft | 478 kts | 1° |
| 2026-05-05 05:25 | 32.59130 | 114.38897 | 24650 ft | 477 kts | 1° |
| 2026-05-05 05:26 | 32.62487 | 114.39204 | 24648 ft | 477 kts | 1° |
| 2026-05-05 05:26 | 32.65758 | 114.39503 | 24647 ft | 477 kts | 1° |
| 2026-05-05 05:26 | 32.69073 | 114.39812 | 24647 ft | 478 kts | 1° |
| 2026-05-05 05:26 | 32.72429 | 114.40125 | 24646 ft | 478 kts | 1° |
| 2026-05-05 05:27 | 32.75742 | 114.40436 | 24645 ft | 478 kts | 1° |
| 2026-05-05 05:27 | 32.78370 | 114.40681 | 24644 ft | 478 kts | 1° |
| 2026-05-05 05:27 | 32.85527 | 114.41350 | 24644 ft | 477 kts | 1° |
| 2026-05-05 05:28 | 32.88851 | 114.41660 | 24641 ft | 477 kts | 1° |
| 2026-05-05 05:28 | 32.92144 | 114.41968 | 24639 ft | 476 kts | 1° |
| 2026-05-05 05:28 | 32.95429 | 114.42275 | 24638 ft | 476 kts | 1° |
| 2026-05-05 05:28 | 32.98732 | 114.42584 | 24641 ft | 476 kts | 1° |
| 2026-05-05 05:29 | 33.02060 | 114.42894 | 24639 ft | 476 kts | 1° |
| 2026-05-05 05:29 | 33.05376 | 114.43205 | 24637 ft | 476 kts | 1° |
| 2026-05-05 05:29 | 33.08686 | 114.43516 | 24639 ft | 475 kts | 1° |
| 2026-05-05 05:29 | 33.11968 | 114.43824 | 24640 ft | 476 kts | 1° |
| 2026-05-05 05:30 | 33.15267 | 114.44132 | 24638 ft | 475 kts | 1° |
| 2026-05-05 05:30 | 33.18593 | 114.44444 | 24638 ft | 475 kts | 1° |
| 2026-05-05 05:30 | 33.21872 | 114.44752 | 24640 ft | 475 kts | 1° |
| 2026-05-05 05:30 | 33.25183 | 114.45062 | 24639 ft | 474 kts | 1° |
| 2026-05-05 05:31 | 33.28495 | 114.45374 | 24639 ft | 474 kts | 1° |
| 2026-05-05 05:31 | 33.31780 | 114.45684 | 24641 ft | 474 kts | 1° |
| 2026-05-05 05:31 | 33.35058 | 114.45993 | 24641 ft | 473 kts | 1° |
| 2026-05-05 05:31 | 33.38342 | 114.46303 | 24641 ft | 473 kts | 1° |
| 2026-05-05 05:32 | 33.41633 | 114.46612 | 24641 ft | 473 kts | 1° |
| 2026-05-05 05:32 | 33.44922 | 114.46921 | 24643 ft | 473 kts | 1° |
| 2026-05-05 05:32 | 33.48204 | 114.47230 | 24645 ft | 473 kts | 1° |
| 2026-05-05 05:32 | 33.51477 | 114.47539 | 24643 ft | 472 kts | 1° |
| 2026-05-05 05:33 | 33.54738 | 114.47845 | 24643 ft | 472 kts | 1° |
| 2026-05-05 05:33 | 33.58031 | 114.48156 | 24643 ft | 472 kts | 1° |
| 2026-05-05 05:33 | 33.61290 | 114.48463 | 24642 ft | 471 kts | 1° |
| 2026-05-05 05:33 | 33.64566 | 114.48771 | 24644 ft | 471 kts | 1° |
| 2026-05-05 05:34 | 33.67822 | 114.49077 | 24644 ft | 471 kts | 1° |
| 2026-05-05 05:34 | 33.71093 | 114.49382 | 24645 ft | 470 kts | 1° |
| 2026-05-05 05:34 | 33.74353 | 114.49687 | 24645 ft | 470 kts | 1° |
| 2026-05-05 05:34 | 33.77593 | 114.49989 | 24647 ft | 470 kts | 1° |
| 2026-05-05 05:35 | 33.80845 | 114.50294 | 24644 ft | 470 kts | 1° |
| 2026-05-05 05:35 | 33.84129 | 114.50602 | 24644 ft | 470 kts | 1° |
| 2026-05-05 05:35 | 33.87387 | 114.50909 | 24646 ft | 470 kts | 1° |
| 2026-05-05 05:35 | 33.90625 | 114.51216 | 24647 ft | 469 kts | 1° |
| 2026-05-05 05:36 | 33.93897 | 114.51525 | 24647 ft | 469 kts | 1° |
| 2026-05-05 05:36 | 33.97163 | 114.51834 | 24648 ft | 469 kts | 1° |
| 2026-05-05 05:36 | 34.00391 | 114.52138 | 24646 ft | 468 kts | 1° |
| 2026-05-05 05:36 | 34.03631 | 114.52445 | 24648 ft | 468 kts | 1° |
| 2026-05-05 05:37 | 34.06861 | 114.52748 | 24649 ft | 468 kts | 1° |
| 2026-05-05 05:37 | 34.10145 | 114.53059 | 24648 ft | 467 kts | 1° |
| 2026-05-05 05:37 | 34.13388 | 114.53366 | 24648 ft | 468 kts | 1° |
| 2026-05-05 05:37 | 34.16621 | 114.53672 | 24647 ft | 468 kts | 1° |
| 2026-05-05 05:38 | 34.19847 | 114.53978 | 24646 ft | 468 kts | 1° |
| 2026-05-05 05:38 | 34.23104 | 114.54288 | 24644 ft | 468 kts | 1° |
| 2026-05-05 05:38 | 34.26363 | 114.54597 | 24649 ft | 468 kts | 1° |
| 2026-05-05 05:38 | 34.29585 | 114.54902 | 24652 ft | 467 kts | 1° |
| 2026-05-05 05:39 | 34.32807 | 114.55210 | 24653 ft | 467 kts | 1° |
| 2026-05-05 05:39 | 34.36080 | 114.55521 | 24655 ft | 467 kts | 1° |
| 2026-05-05 05:39 | 34.39328 | 114.55831 | 24653 ft | 467 kts | 1° |
| 2026-05-05 05:39 | 34.42563 | 114.56139 | 24652 ft | 467 kts | 1° |
| 2026-05-05 05:40 | 34.45803 | 114.56447 | 24654 ft | 467 kts | 1° |
| 2026-05-05 05:40 | 34.49035 | 114.56754 | 24654 ft | 467 kts | 1° |
| 2026-05-05 05:40 | 34.52279 | 114.57062 | 24658 ft | 467 kts | 1° |
| 2026-05-05 05:40 | 34.55513 | 114.57368 | 24656 ft | 466 kts | 1° |
| 2026-05-05 05:41 | 34.58731 | 114.57673 | 24657 ft | 467 kts | 1° |
| 2026-05-05 05:41 | 34.61979 | 114.57981 | 24661 ft | 467 kts | 1° |
| 2026-05-05 05:41 | 34.65241 | 114.58290 | 24656 ft | 467 kts | 1° |
| 2026-05-05 05:41 | 34.68442 | 114.58594 | 24662 ft | 467 kts | 1° |
| 2026-05-05 05:42 | 34.71698 | 114.58904 | 24659 ft | 467 kts | 1° |
| 2026-05-05 05:42 | 34.74932 | 114.59212 | 24664 ft | 467 kts | 1° |
| 2026-05-05 05:42 | 34.78168 | 114.59520 | 24666 ft | 467 kts | 1° |
| 2026-05-05 05:42 | 34.81429 | 114.59830 | 24659 ft | 467 kts | 1° |
| 2026-05-05 05:43 | 34.84658 | 114.60139 | 24663 ft | 466 kts | 1° |
| 2026-05-05 05:43 | 34.87882 | 114.60447 | 24666 ft | 466 kts | 1° |
| 2026-05-05 05:43 | 34.91120 | 114.60757 | 24663 ft | 466 kts | 1° |
| 2026-05-05 05:43 | 34.94331 | 114.61063 | 24663 ft | 466 kts | 1° |
| 2026-05-05 05:44 | 34.97586 | 114.61375 | 24667 ft | 465 kts | 1° |
| 2026-05-05 05:44 | 35.00812 | 114.61684 | 24666 ft | 466 kts | 1° |
| 2026-05-05 05:44 | 35.04026 | 114.61993 | 24663 ft | 467 kts | 1° |
| 2026-05-05 05:44 | 35.07292 | 114.62305 | 24661 ft | 467 kts | 1° |
| 2026-05-05 05:45 | 35.10533 | 114.62615 | 24664 ft | 467 kts | 1° |
| 2026-05-05 05:45 | 35.13761 | 114.62925 | 24667 ft | 466 kts | 1° |
| 2026-05-05 05:45 | 35.16990 | 114.63235 | 24667 ft | 466 kts | 1° |
| 2026-05-05 05:45 | 35.20224 | 114.63546 | 24663 ft | 466 kts | 1° |
| 2026-05-05 05:46 | 35.23444 | 114.63856 | 24666 ft | 466 kts | 1° |
| 2026-05-05 05:46 | 35.26685 | 114.64168 | 24667 ft | 465 kts | 1° |
| 2026-05-05 05:46 | 35.29913 | 114.64480 | 24666 ft | 465 kts | 1° |
| 2026-05-05 05:46 | 35.33142 | 114.64791 | 24666 ft | 465 kts | 1° |
| 2026-05-05 05:47 | 35.36345 | 114.65102 | 24665 ft | 465 kts | 2° |
| 2026-05-05 05:47 | 35.39573 | 114.65428 | 24665 ft | 465 kts | 2° |
| 2026-05-05 05:47 | 35.42788 | 114.65755 | 24667 ft | 465 kts | 2° |
| 2026-05-05 05:47 | 35.46044 | 114.66082 | 24669 ft | 465 kts | 2° |
| 2026-05-05 05:48 | 35.49261 | 114.66402 | 24668 ft | 466 kts | 2° |
| 2026-05-05 05:48 | 35.52484 | 114.66718 | 24668 ft | 466 kts | 2° |
| 2026-05-05 05:48 | 35.55698 | 114.67032 | 24668 ft | 466 kts | 2° |
| 2026-05-05 05:48 | 35.58956 | 114.67349 | 24669 ft | 466 kts | 2° |
| 2026-05-05 05:49 | 35.62157 | 114.67661 | 24671 ft | 465 kts | 2° |
| 2026-05-05 05:49 | 35.65398 | 114.67977 | 24671 ft | 465 kts | 2° |
| 2026-05-05 05:49 | 35.68605 | 114.68288 | 24672 ft | 464 kts | 2° |
| 2026-05-05 05:49 | 35.71835 | 114.68603 | 24671 ft | 464 kts | 2° |
| 2026-05-05 05:50 | 35.75061 | 114.68916 | 24672 ft | 464 kts | 2° |
| 2026-05-05 05:50 | 35.78260 | 114.69228 | 24673 ft | 465 kts | 2° |
| 2026-05-05 05:50 | 35.81476 | 114.69542 | 24673 ft | 465 kts | 2° |
| 2026-05-05 05:50 | 35.84739 | 114.69861 | 24672 ft | 465 kts | 2° |
| 2026-05-05 05:51 | 35.87922 | 114.70171 | 24669 ft | 466 kts | 2° |
| 2026-05-05 05:51 | 35.91162 | 114.70486 | 24671 ft | 465 kts | 2° |
| 2026-05-05 05:51 | 35.94400 | 114.70802 | 24672 ft | 465 kts | 2° |
| 2026-05-05 05:51 | 35.97633 | 114.71116 | 24673 ft | 465 kts | 2° |
| 2026-05-05 05:52 | 36.00840 | 114.71428 | 24673 ft | 464 kts | 2° |
| 2026-05-05 05:52 | 36.04062 | 114.71742 | 24675 ft | 464 kts | 2° |
| 2026-05-05 05:52 | 36.07278 | 114.72058 | 24677 ft | 464 kts | 2° |
| 2026-05-05 05:52 | 36.10498 | 114.72375 | 24675 ft | 464 kts | 2° |
| 2026-05-05 05:53 | 36.13714 | 114.72691 | 24676 ft | 464 kts | 2° |
| 2026-05-05 05:53 | 36.16931 | 114.73006 | 24676 ft | 465 kts | 2° |
| 2026-05-05 05:53 | 36.20138 | 114.73319 | 24676 ft | 465 kts | 2° |
| 2026-05-05 05:53 | 36.23401 | 114.73635 | 24673 ft | 465 kts | 2° |
| 2026-05-05 05:54 | 36.26589 | 114.73947 | 24674 ft | 464 kts | 2° |
| 2026-05-05 05:54 | 36.29814 | 114.74265 | 24671 ft | 464 kts | 2° |
| 2026-05-05 05:54 | 36.33018 | 114.74586 | 24671 ft | 463 kts | 2° |
| 2026-05-05 05:54 | 36.36253 | 114.74844 | 24669 ft | 462 kts | 0° |
| 2026-05-05 05:55 | 36.39451 | 114.74915 | 24666 ft | 462 kts | 358° |
| 2026-05-05 05:55 | 36.42651 | 114.74825 | 24668 ft | 461 kts | 356° |
| 2026-05-05 05:55 | 36.45893 | 114.74686 | 24666 ft | 461 kts | 356° |
| 2026-05-05 05:55 | 36.49089 | 114.74535 | 24665 ft | 461 kts | 356° |
| 2026-05-05 05:56 | 36.52278 | 114.74383 | 24662 ft | 461 kts | 356° |
| 2026-05-05 05:56 | 36.55514 | 114.74229 | 24661 ft | 461 kts | 356° |
| 2026-05-05 05:56 | 36.58683 | 114.74081 | 24662 ft | 462 kts | 356° |
| 2026-05-05 05:56 | 36.61927 | 114.73930 | 24662 ft | 462 kts | 356° |
| 2026-05-05 05:57 | 36.65135 | 114.73779 | 24659 ft | 461 kts | 356° |
| 2026-05-05 05:57 | 36.68339 | 114.73630 | 24661 ft | 461 kts | 356° |
| 2026-05-05 05:57 | 36.71522 | 114.73483 | 24658 ft | 461 kts | 356° |
| 2026-05-05 05:57 | 36.74715 | 114.73515 | 24650 ft | 463 kts | 2° |
| 2026-05-05 05:58 | 36.77911 | 114.74106 | 24654 ft | 465 kts | 10° |
| 2026-05-05 05:58 | 36.81023 | 114.75243 | 24654 ft | 467 kts | 18° |
| 2026-05-05 05:58 | 36.84021 | 114.76838 | 24656 ft | 469 kts | 21° |
| 2026-05-05 05:58 | 36.86998 | 114.78558 | 24655 ft | 469 kts | 22° |
| 2026-05-05 05:59 | 36.89922 | 114.80274 | 24658 ft | 469 kts | 22° |
| 2026-05-05 05:59 | 36.92882 | 114.82014 | 24657 ft | 469 kts | 22° |
| 2026-05-05 05:59 | 36.95827 | 114.83742 | 24656 ft | 469 kts | 22° |
| 2026-05-05 05:59 | 36.98790 | 114.85478 | 24653 ft | 470 kts | 22° |
| 2026-05-05 06:00 | 37.01732 | 114.87199 | 24655 ft | 469 kts | 22° |
| 2026-05-05 06:00 | 37.04703 | 114.88935 | 24653 ft | 469 kts | 22° |
| 2026-05-05 06:00 | 37.07678 | 114.90676 | 24655 ft | 470 kts | 22° |
| 2026-05-05 06:00 | 37.10611 | 114.92391 | 24654 ft | 469 kts | 22° |
| 2026-05-05 06:01 | 37.13562 | 114.94113 | 24652 ft | 469 kts | 22° |
| 2026-05-05 06:01 | 37.16542 | 114.95852 | 24652 ft | 469 kts | 22° |
| 2026-05-05 06:01 | 37.19500 | 114.97579 | 24652 ft | 469 kts | 22° |
| 2026-05-05 06:01 | 37.22422 | 114.99291 | 24650 ft | 468 kts | 22° |
| 2026-05-05 06:02 | 37.25397 | 115.01038 | 24649 ft | 469 kts | 22° |
| 2026-05-05 06:02 | 37.28325 | 115.02757 | 24648 ft | 470 kts | 22° |
| 2026-05-05 06:02 | 37.31276 | 115.04492 | 24649 ft | 470 kts | 22° |
| 2026-05-05 06:02 | 37.34267 | 115.06254 | 24648 ft | 469 kts | 22° |
| 2026-05-05 06:03 | 37.37216 | 115.07993 | 24648 ft | 469 kts | 22° |
| 2026-05-05 06:03 | 37.40164 | 115.09731 | 24646 ft | 470 kts | 22° |
| 2026-05-05 06:03 | 37.43117 | 115.11475 | 24647 ft | 470 kts | 22° |
| 2026-05-05 06:03 | 37.46074 | 115.13222 | 24649 ft | 471 kts | 22° |
| 2026-05-05 06:04 | 37.49029 | 115.14971 | 24647 ft | 471 kts | 22° |
| 2026-05-05 06:04 | 37.51984 | 115.16722 | 24646 ft | 470 kts | 22° |
| 2026-05-05 06:04 | 37.54962 | 115.18488 | 24645 ft | 471 kts | 22° |
| 2026-05-05 06:04 | 37.57930 | 115.20245 | 24644 ft | 471 kts | 22° |
| 2026-05-05 06:05 | 37.60872 | 115.21991 | 24644 ft | 471 kts | 22° |
| 2026-05-05 06:05 | 37.63865 | 115.23769 | 24642 ft | 471 kts | 22° |
| 2026-05-05 06:05 | 37.66819 | 115.25523 | 24642 ft | 471 kts | 22° |
| 2026-05-05 06:05 | 37.69766 | 115.27274 | 24643 ft | 470 kts | 22° |
| 2026-05-05 06:06 | 37.72722 | 115.29033 | 24643 ft | 471 kts | 22° |
| 2026-05-05 06:06 | 37.75679 | 115.30795 | 24643 ft | 471 kts | 22° |
| 2026-05-05 06:06 | 37.78727 | 115.32321 | 24632 ft | 467 kts | 14° |
| 2026-05-05 06:06 | 37.81852 | 115.33171 | 24637 ft | 464 kts | 5° |
| 2026-05-05 06:07 | 37.85106 | 115.33373 | 24637 ft | 462 kts | 356° |
| 2026-05-05 06:07 | 37.88289 | 115.33035 | 24641 ft | 462 kts | 352° |
| 2026-05-05 06:07 | 37.91432 | 115.32592 | 24634 ft | 450 kts | 352° |
| 2026-05-05 06:07 | 37.94555 | 115.32130 | 24640 ft | 444 kts | 352° |
| 2026-05-05 06:08 | 37.97614 | 115.31677 | 24417 ft | 442 kts | 352° |
| 2026-05-05 06:08 | 38.00623 | 115.31239 | 24158 ft | 440 kts | 352° |
| 2026-05-05 06:08 | 38.03674 | 115.30801 | 23821 ft | 437 kts | 352° |
| 2026-05-05 06:08 | 38.06658 | 115.30376 | 23486 ft | 434 kts | 352° |
| 2026-05-05 06:09 | 38.09657 | 115.29949 | 23155 ft | 432 kts | 352° |
| 2026-05-05 06:09 | 38.12642 | 115.29517 | 22827 ft | 429 kts | 352° |
| 2026-05-05 06:09 | 38.15601 | 115.29082 | 22498 ft | 427 kts | 352° |
| 2026-05-05 06:09 | 38.18539 | 115.28651 | 22170 ft | 424 kts | 352° |
| 2026-05-05 06:10 | 38.21466 | 115.28220 | 21841 ft | 422 kts | 352° |
| 2026-05-05 06:10 | 38.24372 | 115.27791 | 21513 ft | 420 kts | 352° |
| 2026-05-05 06:10 | 38.27276 | 115.27360 | 21183 ft | 419 kts | 352° |
| 2026-05-05 06:10 | 38.30139 | 115.26936 | 20856 ft | 416 kts | 352° |
| 2026-05-05 06:11 | 38.33012 | 115.26511 | 20528 ft | 414 kts | 352° |
| 2026-05-05 06:11 | 38.35874 | 115.26086 | 20199 ft | 412 kts | 352° |
| 2026-05-05 06:11 | 38.38720 | 115.25664 | 19869 ft | 409 kts | 352° |
| 2026-05-05 06:11 | 38.41525 | 115.25246 | 19543 ft | 408 kts | 352° |
| 2026-05-05 06:12 | 38.44338 | 115.24827 | 19215 ft | 405 kts | 352° |
| 2026-05-05 06:12 | 38.47144 | 115.24409 | 18886 ft | 403 kts | 352° |
| 2026-05-05 06:12 | 38.49903 | 115.23997 | 18562 ft | 401 kts | 352° |
| 2026-05-05 06:12 | 38.52683 | 115.23583 | 18231 ft | 399 kts | 352° |
| 2026-05-05 06:13 | 38.55447 | 115.23419 | 17888 ft | 398 kts | 3° |
| 2026-05-05 06:13 | 38.58112 | 115.24159 | 17569 ft | 400 kts | 17° |
| 2026-05-05 06:13 | 38.60602 | 115.25798 | 17242 ft | 403 kts | 31° |
| 2026-05-05 06:13 | 38.62686 | 115.28224 | 16915 ft | 408 kts | 46° |
| 2026-05-05 06:14 | 38.64214 | 115.31267 | 16596 ft | 413 kts | 59° |
| 2026-05-05 06:14 | 38.65437 | 115.34568 | 16430 ft | 413 kts | 61° |
| 2026-05-05 06:14 | 38.66632 | 115.37895 | 16423 ft | 413 kts | 61° |
| 2026-05-05 06:14 | 38.67833 | 115.41229 | 16186 ft | 413 kts | 61° |
| 2026-05-05 06:15 | 38.69031 | 115.44539 | 15782 ft | 403 kts | 60° |
| 2026-05-05 06:15 | 38.70200 | 115.47749 | 15382 ft | 394 kts | 60° |
| 2026-05-05 06:15 | 38.71344 | 115.50856 | 14989 ft | 385 kts | 59° |
| 2026-05-05 06:15 | 38.72568 | 115.53859 | 14582 ft | 376 kts | 56° |
| 2026-05-05 06:16 | 38.73870 | 115.56732 | 14186 ft | 372 kts | 54° |
| 2026-05-05 06:16 | 38.75187 | 115.59570 | 13787 ft | 370 kts | 54° |
| 2026-05-05 06:16 | 38.76500 | 115.62388 | 13391 ft | 367 kts | 54° |
| 2026-05-05 06:16 | 38.77789 | 115.65160 | 12994 ft | 365 kts | 55° |
| 2026-05-05 06:17 | 38.79067 | 115.67928 | 12592 ft | 359 kts | 55° |
| 2026-05-05 06:17 | 38.80337 | 115.70687 | 12193 ft | 352 kts | 55° |
| 2026-05-05 06:17 | 38.81569 | 115.73364 | 11802 ft | 348 kts | 56° |
| 2026-05-05 06:17 | 38.82796 | 115.76025 | 11399 ft | 347 kts | 56° |
| 2026-05-05 06:18 | 38.84012 | 115.78665 | 11006 ft | 345 kts | 56° |
| 2026-05-05 06:18 | 38.85228 | 115.81306 | 10608 ft | 341 kts | 56° |
| 2026-05-05 06:18 | 38.86425 | 115.83907 | 10205 ft | 336 kts | 56° |
| 2026-05-05 06:18 | 38.87589 | 115.86437 | 9813 ft | 331 kts | 56° |
| 2026-05-05 06:19 | 38.88751 | 115.88965 | 9415 ft | 326 kts | 56° |
| 2026-05-05 06:19 | 38.89892 | 115.91444 | 9019 ft | 321 kts | 56° |
| 2026-05-05 06:19 | 38.91019 | 115.93895 | 8623 ft | 318 kts | 56° |
| 2026-05-05 06:19 | 38.92141 | 115.96340 | 8221 ft | 314 kts | 57° |
| 2026-05-05 06:20 | 38.93237 | 115.98733 | 7824 ft | 311 kts | 57° |
| 2026-05-05 06:20 | 38.94328 | 116.01115 | 7427 ft | 308 kts | 57° |
| 2026-05-05 06:20 | 38.95400 | 116.03459 | 7142 ft | 301 kts | 57° |
| 2026-05-05 06:20 | 38.96432 | 116.05724 | 7101 ft | 285 kts | 57° |
| 2026-05-05 06:21 | 38.97417 | 116.07839 | 7094 ft | 268 kts | 51° |
| 2026-05-05 06:21 | 38.98607 | 116.09567 | 7088 ft | 249 kts | 37° |
| 2026-05-05 06:21 | 38.99984 | 116.10826 | 7101 ft | 239 kts | 28° |
| 2026-05-05 06:21 | 39.01413 | 116.11913 | 7101 ft | 239 kts | 27° |
| 2026-05-05 06:22 | 39.02857 | 116.12994 | 7100 ft | 239 kts | 27° |
| 2026-05-05 06:22 | 39.04275 | 116.14070 | 7102 ft | 239 kts | 27° |
| 2026-05-05 06:22 | 39.05720 | 116.15179 | 7107 ft | 240 kts | 27° |
| 2026-05-05 06:22 | 39.07130 | 116.16310 | 7103 ft | 241 kts | 35° |
| 2026-05-05 06:23 | 39.08120 | 116.17990 | 7060 ft | 238 kts | 70° |
| 2026-05-05 06:23 | 39.08393 | 116.20046 | 6954 ft | 231 kts | 81° |
| 2026-05-05 06:23 | 39.08549 | 116.22111 | 6697 ft | 230 kts | 82° |
| 2026-05-05 06:23 | 39.08709 | 116.24135 | 6453 ft | 229 kts | 81° |
| 2026-05-05 06:24 | 39.08884 | 116.26165 | 6205 ft | 229 kts | 81° |
| 2026-05-05 06:24 | 39.09069 | 116.28191 | 5961 ft | 229 kts | 81° |
| 2026-05-05 06:24 | 39.09261 | 116.30228 | 5714 ft | 228 kts | 81° |
| 2026-05-05 06:24 | 39.09456 | 116.32263 | 5464 ft | 228 kts | 81° |
| 2026-05-05 06:25 | 39.09648 | 116.34274 | 5216 ft | 227 kts | 81° |
| 2026-05-05 06:25 | 39.09840 | 116.36296 | 4971 ft | 227 kts | 82° |
| 2026-05-05 06:25 | 39.10030 | 116.38285 | 4723 ft | 225 kts | 82° |
| 2026-05-05 06:25 | 39.10232 | 116.40295 | 4471 ft | 223 kts | 82° |
| 2026-05-05 06:26 | 39.10469 | 116.42250 | 4240 ft | 219 kts | 71° |
| 2026-05-05 06:26 | 39.11232 | 116.43847 | 4296 ft | 209 kts | 40° |
| 2026-05-05 06:26 | 39.12477 | 116.44717 | 4232 ft | 204 kts | 9° |
| 2026-05-05 06:26 | 39.13884 | 116.44752 | 4218 ft | 200 kts | 349° |
| 2026-05-05 06:27 | 39.15253 | 116.44515 | 4203 ft | 200 kts | 347° |
| 2026-05-05 06:27 | 39.18019 | 116.44042 | 4192 ft | 200 kts | 349° |
| 2026-05-05 06:27 | 39.19403 | 116.43840 | 4188 ft | 201 kts | 349° |
| 2026-05-05 06:28 | 39.20790 | 116.43635 | 4187 ft | 201 kts | 349° |
| 2026-05-05 06:28 | 39.22187 | 116.43423 | 4188 ft | 201 kts | 349° |
| 2026-05-05 06:28 | 39.23582 | 116.43206 | 4188 ft | 201 kts | 349° |
| 2026-05-05 06:28 | 39.24979 | 116.42986 | 4187 ft | 201 kts | 349° |
| 2026-05-05 06:29 | 39.26368 | 116.42765 | 4182 ft | 201 kts | 349° |
| 2026-05-05 06:29 | 39.27720 | 116.42551 | 4039 ft | 191 kts | 349° |
| 2026-05-05 06:29 | 39.29021 | 116.42344 | 3821 ft | 184 kts | 349° |
| 2026-05-05 06:29 | 39.30269 | 116.42145 | 3582 ft | 179 kts | 349° |
| 2026-05-05 06:30 | 39.31485 | 116.41951 | 3333 ft | 172 kts | 348° |
| 2026-05-05 06:30 | 39.32639 | 116.41768 | 3095 ft | 163 kts | 348° |
| 2026-05-05 06:30 | 39.33741 | 116.41593 | 2868 ft | 153 kts | 347° |
| 2026-05-05 06:30 | 39.34765 | 116.41431 | 2663 ft | 146 kts | 347° |
| 2026-05-05 06:31 | 39.35765 | 116.41270 | 2481 ft | 144 kts | 347° |
| 2026-05-05 06:31 | 39.36766 | 116.41109 | 2307 ft | 144 kts | 346° |
| 2026-05-05 06:31 | 39.37759 | 116.40950 | 2129 ft | 144 kts | 347° |
| 2026-05-05 06:31 | 39.38746 | 116.40793 | 1950 ft | 144 kts | 347° |
| 2026-05-05 06:32 | 39.39748 | 116.40634 | 1761 ft | 143 kts | 347° |
| 2026-05-05 06:32 | 39.40743 | 116.40477 | 1570 ft | 143 kts | 347° |
| 2026-05-05 06:32 | 39.41733 | 116.40320 | 1376 ft | 142 kts | 348° |
| 2026-05-05 06:32 | 39.42717 | 116.40163 | 1183 ft | 142 kts | 348° |
| 2026-05-05 06:33 | 39.43707 | 116.40005 | 993 ft | 143 kts | 349° |
| 2026-05-05 06:33 | 39.44691 | 116.39844 | 809 ft | 144 kts | 349° |
| 2026-05-05 06:33 | 39.45693 | 116.39690 | 633 ft | 145 kts | 349° |
| 2026-05-05 06:33 | 39.46703 | 116.39535 | 446 ft | 144 kts | 349° |
| 2026-05-05 06:34 | 39.47689 | 116.39380 | 261 ft | 143 kts | 349° |
| 2026-05-05 06:34 | 39.48682 | 116.39217 | 94 ft | 142 kts | 349° |
| 2026-05-05 06:34 | 39.49562 | 116.39041 | 91 ft | 102 kts | 358° |
| 2026-05-05 06:34 | 39.50111 | 116.38956 | 91 ft | 55 kts | 352° |
| 2026-05-05 06:35 | 39.50429 | 116.38915 | 90 ft | 43 kts | 348° |
| 2026-05-05 06:35 | 39.50694 | 116.38872 | 90 ft | 33 kts | 2° |
| 2026-05-05 06:35 | 39.50916 | 116.38847 | 91 ft | 30 kts | 352° |
| 2026-05-05 06:35 | 39.51127 | 116.38820 | 90 ft | 29 kts | 355° |
| 2026-05-05 06:36 | 39.51313 | 116.38821 | 90 ft | 22 kts | 31° |
| 2026-05-05 06:36 | 39.51358 | 116.39002 | 91 ft | 22 kts | 85° |
| 2026-05-05 06:36 | 39.51315 | 116.39146 | 90 ft | 18 kts | 151° |
| 2026-05-05 06:36 | 39.51296 | 116.39291 | 90 ft | 18 kts | 82° |
| 2026-05-05 06:37 | 39.51312 | 116.39468 | 90 ft | 20 kts | 84° |
| 2026-05-05 06:37 | 39.51332 | 116.39664 | 90 ft | 22 kts | 82° |
| 2026-05-05 06:37 | 39.51352 | 116.39875 | 90 ft | 23 kts | 83° |
| 2026-05-05 06:37 | 39.51315 | 116.40025 | 90 ft | 18 kts | 168° |
| 2026-05-05 06:38 | 39.51183 | 116.40045 | 90 ft | 19 kts | 175° |
| 2026-05-05 06:38 | 39.51044 | 116.40067 | 90 ft | 17 kts | 173° |
| 2026-05-05 06:38 | 39.50998 | 116.40185 | 90 ft | 17 kts | 81° |
| 2026-05-05 06:38 | 39.51010 | 116.40315 | 90 ft | 9 kts | 84° |
| 2026-05-05 06:39 | 39.51031 | 116.40356 | 90 ft | 4 kts | 15° |
| 2026-05-05 06:39 | 39.51066 | 116.40369 | 90 ft | 5 kts | 38° |
| 2026-05-05 06:39 | 39.51088 | 116.40395 | 90 ft | 2 kts | 46° |
| 2026-05-05 06:39 | 39.51089 | 116.40395 | 90 ft | 0 kts | 46° |